sensor_id;sensor_type;location;lat;lon;timestamp;temperature;humidity
69359;HTU21D;56520;49.066;8.660;2023-03-01T00:01:47;-2.61;78.67
69359;HTU21D;56520;49.066;8.660;2023-03-01T00:04:13;-2.71;78.79
69359;HTU21D;56520;49.066;8.660;2023-03-01T00:06:38;-2.76;78.90
69359;HTU21D;56520;49.066;8.660;2023-03-01T00:09:04;-2.81;79.22
69359;HTU21D;56520;49.066;8.660;2023-03-01T00:11:31;-2.81;79.59
69359;HTU21D;56520;49.066;8.660;2023-03-01T00:13:59;-2.81;79.49
69359;HTU21D;56520;49.066;8.660;2023-03-01T00:16:31;-2.82;79.19
69359;HTU21D;56520;49.066;8.660;2023-03-01T00:18:58;-2.86;79.36
69359;HTU21D;56520;49.066;8.660;2023-03-01T00:21:25;-2.90;79.48
69359;HTU21D;56520;49.066;8.660;2023-03-01T00:23:51;-2.92;79.53
69359;HTU21D;56520;49.066;8.660;2023-03-01T00:26:18;-2.90;79.50
69359;HTU21D;56520;49.066;8.660;2023-03-01T00:28:44;-2.88;79.56
69359;HTU21D;56520;49.066;8.660;2023-03-01T00:31:16;-2.80;79.69
69359;HTU21D;56520;49.066;8.660;2023-03-01T00:33:42;-2.71;80.01
69359;HTU21D;56520;49.066;8.660;2023-03-01T00:36:10;-2.57;80.85
69359;HTU21D;56520;49.066;8.660;2023-03-01T00:38:37;-2.50;81.12
69359;HTU21D;56520;49.066;8.660;2023-03-01T00:41:04;-2.44;81.03
69359;HTU21D;56520;49.066;8.660;2023-03-01T00:43:30;-2.41;80.87
69359;HTU21D;56520;49.066;8.660;2023-03-01T00:45:56;-2.36;80.95
69359;HTU21D;56520;49.066;8.660;2023-03-01T00:48:28;-2.30;80.99
69359;HTU21D;56520;49.066;8.660;2023-03-01T00:50:53;-2.30;80.50
69359;HTU21D;56520;49.066;8.660;2023-03-01T00:53:18;-2.30;80.56
69359;HTU21D;56520;49.066;8.660;2023-03-01T00:55:44;-2.30;80.59
69359;HTU21D;56520;49.066;8.660;2023-03-01T00:58:09;-2.33;80.47
69359;HTU21D;56520;49.066;8.660;2023-03-01T01:00:35;-2.38;80.59
69359;HTU21D;56520;49.066;8.660;2023-03-01T01:03:01;-2.32;81.10
69359;HTU21D;56520;49.066;8.660;2023-03-01T01:05:26;-2.32;80.78
69359;HTU21D;56520;49.066;8.660;2023-03-01T01:07:51;-2.39;80.59
69359;HTU21D;56520;49.066;8.660;2023-03-01T01:10:17;-2.47;80.52
69359;HTU21D;56520;49.066;8.660;2023-03-01T01:12:45;-2.52;80.77
69359;HTU21D;56520;49.066;8.660;2023-03-01T01:15:13;-2.53;80.91
69359;HTU21D;56520;49.066;8.660;2023-03-01T01:17:41;-2.60;80.77
69359;HTU21D;56520;49.066;8.660;2023-03-01T01:20:07;-2.64;80.81
69359;HTU21D;56520;49.066;8.660;2023-03-01T01:22:36;-2.66;81.05
69359;HTU21D;56520;49.066;8.660;2023-03-01T01:25:02;-2.72;80.83
69359;HTU21D;56520;49.066;8.660;2023-03-01T01:27:27;-2.72;81.17
69359;HTU21D;56520;49.066;8.660;2023-03-01T01:29:54;-2.74;81.16
69359;HTU21D;56520;49.066;8.660;2023-03-01T01:32:19;-2.75;81.17
69359;HTU21D;56520;49.066;8.660;2023-03-01T01:34:45;-2.75;81.14
69359;HTU21D;56520;49.066;8.660;2023-03-01T01:37:11;-2.75;81.30
69359;HTU21D;56520;49.066;8.660;2023-03-01T01:39:37;-2.64;82.84
69359;HTU21D;56520;49.066;8.660;2023-03-01T01:42:03;-2.51;82.70
69359;HTU21D;56520;49.066;8.660;2023-03-01T01:44:29;-2.45;82.55
69359;HTU21D;56520;49.066;8.660;2023-03-01T01:47:05;-2.45;82.36
69359;HTU21D;56520;49.066;8.660;2023-03-01T01:49:43;-2.46;82.30
69359;HTU21D;56520;49.066;8.660;2023-03-01T01:52:18;-2.42;82.40
69359;HTU21D;56520;49.066;8.660;2023-03-01T01:54:57;-2.39;82.36
69359;HTU21D;56520;49.066;8.660;2023-03-01T01:57:45;-2.43;81.93
69359;HTU21D;56520;49.066;8.660;2023-03-01T02:00:24;-2.48;81.97
69359;HTU21D;56520;49.066;8.660;2023-03-01T02:03:11;-2.53;81.81
69359;HTU21D;56520;49.066;8.660;2023-03-01T02:05:51;-2.58;81.88
69359;HTU21D;56520;49.066;8.660;2023-03-01T02:08:20;-2.56;82.20
69359;HTU21D;56520;49.066;8.660;2023-03-01T02:10:46;-2.57;82.09
69359;HTU21D;56520;49.066;8.660;2023-03-01T02:13:13;-2.62;82.11
69359;HTU21D;56520;49.066;8.660;2023-03-01T02:15:40;-2.58;82.62
69359;HTU21D;56520;49.066;8.660;2023-03-01T02:18:07;-2.59;82.34
69359;HTU21D;56520;49.066;8.660;2023-03-01T02:23:13;-2.58;82.58
69359;HTU21D;56520;49.066;8.660;2023-03-01T02:25:56;-2.62;82.72
69359;HTU21D;56520;49.066;8.660;2023-03-01T02:28:36;-2.69;82.58
69359;HTU21D;56520;49.066;8.660;2023-03-01T02:31:05;-2.74;82.52
69359;HTU21D;56520;49.066;8.660;2023-03-01T02:33:49;-2.73;83.26
69359;HTU21D;56520;49.066;8.660;2023-03-01T02:36:20;-2.73;82.65
69359;HTU21D;56520;49.066;8.660;2023-03-01T02:38:48;-2.72;83.06
69359;HTU21D;56520;49.066;8.660;2023-03-01T02:41:16;-2.73;82.77
69359;HTU21D;56520;49.066;8.660;2023-03-01T02:43:44;-2.75;82.73
69359;HTU21D;56520;49.066;8.660;2023-03-01T02:46:22;-2.77;82.75
69359;HTU21D;56520;49.066;8.660;2023-03-01T02:48:51;-2.80;82.76
69359;HTU21D;56520;49.066;8.660;2023-03-01T02:54:28;-2.93;82.99
69359;HTU21D;56520;49.066;8.660;2023-03-01T02:56:55;-2.94;83.11
69359;HTU21D;56520;49.066;8.660;2023-03-01T02:59:24;-2.91;83.23
69359;HTU21D;56520;49.066;8.660;2023-03-01T03:01:52;-2.92;83.35
69359;HTU21D;56520;49.066;8.660;2023-03-01T03:04:18;-2.92;83.13
69359;HTU21D;56520;49.066;8.660;2023-03-01T03:06:48;-2.97;82.86
69359;HTU21D;56520;49.066;8.660;2023-03-01T03:09:14;-3.06;82.92
69359;HTU21D;56520;49.066;8.660;2023-03-01T03:11:40;-3.13;83.20
69359;HTU21D;56520;49.066;8.660;2023-03-01T03:14:08;-3.23;83.23
69359;HTU21D;56520;49.066;8.660;2023-03-01T03:16:49;-3.30;83.31
69359;HTU21D;56520;49.066;8.660;2023-03-01T03:19:18;-3.34;83.32
69359;HTU21D;56520;49.066;8.660;2023-03-01T03:21:44;-3.39;83.42
69359;HTU21D;56520;49.066;8.660;2023-03-01T03:24:10;-3.45;83.47
69359;HTU21D;56520;49.066;8.660;2023-03-01T03:26:35;-3.49;83.57
69359;HTU21D;56520;49.066;8.660;2023-03-01T03:29:01;-3.51;83.52
69359;HTU21D;56520;49.066;8.660;2023-03-01T03:31:27;-3.54;83.59
69359;HTU21D;56520;49.066;8.660;2023-03-01T03:33:52;-3.54;83.89
69359;HTU21D;56520;49.066;8.660;2023-03-01T03:36:21;-3.55;84.16
69359;HTU21D;56520;49.066;8.660;2023-03-01T03:38:47;-3.57;84.16
69359;HTU21D;56520;49.066;8.660;2023-03-01T03:41:14;-3.61;84.16
69359;HTU21D;56520;49.066;8.660;2023-03-01T03:43:40;-3.62;84.14
69359;HTU21D;56520;49.066;8.660;2023-03-01T03:46:09;-3.62;84.27
69359;HTU21D;56520;49.066;8.660;2023-03-01T03:48:36;-3.61;84.20
69359;HTU21D;56520;49.066;8.660;2023-03-01T03:51:02;-3.60;84.12
69359;HTU21D;56520;49.066;8.660;2023-03-01T03:53:30;-3.55;83.99
69359;HTU21D;56520;49.066;8.660;2023-03-01T03:55:55;-3.55;83.97
69359;HTU21D;56520;49.066;8.660;2023-03-01T03:58:22;-3.53;83.95
69359;HTU21D;56520;49.066;8.660;2023-03-01T04:00:51;-3.48;83.90
69359;HTU21D;56520;49.066;8.660;2023-03-01T04:03:18;-3.47;83.90
69359;HTU21D;56520;49.066;8.660;2023-03-01T04:05:44;-3.41;84.27
69359;HTU21D;56520;49.066;8.660;2023-03-01T04:08:10;-3.39;84.32
69359;HTU21D;56520;49.066;8.660;2023-03-01T04:10:41;-3.42;84.19
69359;HTU21D;56520;49.066;8.660;2023-03-01T04:13:09;-3.45;84.17
69359;HTU21D;56520;49.066;8.660;2023-03-01T04:15:35;-3.50;84.17
69359;HTU21D;56520;49.066;8.660;2023-03-01T04:18:02;-3.56;84.15
69359;HTU21D;56520;49.066;8.660;2023-03-01T04:20:30;-3.57;84.16
69359;HTU21D;56520;49.066;8.660;2023-03-01T04:23:02;-3.60;84.15
69359;HTU21D;56520;49.066;8.660;2023-03-01T04:25:54;-3.65;84.12
69359;HTU21D;56520;49.066;8.660;2023-03-01T04:30:51;-3.66;84.16
69359;HTU21D;56520;49.066;8.660;2023-03-01T04:33:18;-3.71;84.21
69359;HTU21D;56520;49.066;8.660;2023-03-01T04:35:44;-3.77;84.45
69359;HTU21D;56520;49.066;8.660;2023-03-01T04:38:09;-3.83;84.77
69359;HTU21D;56520;49.066;8.660;2023-03-01T04:40:36;-3.87;85.10
69359;HTU21D;56520;49.066;8.660;2023-03-01T04:43:02;-3.85;85.50
69359;HTU21D;56520;49.066;8.660;2023-03-01T04:45:28;-3.81;85.42
69359;HTU21D;56520;49.066;8.660;2023-03-01T04:47:54;-3.75;85.16
69359;HTU21D;56520;49.066;8.660;2023-03-01T04:50:20;-3.69;84.94
69359;HTU21D;56520;49.066;8.660;2023-03-01T04:52:47;-3.67;84.93
69359;HTU21D;56520;49.066;8.660;2023-03-01T04:55:13;-3.56;84.97
69359;HTU21D;56520;49.066;8.660;2023-03-01T04:57:39;-3.54;84.84
69359;HTU21D;56520;49.066;8.660;2023-03-01T05:00:07;-3.42;85.10
69359;HTU21D;56520;49.066;8.660;2023-03-01T05:02:55;-3.39;84.97
69359;HTU21D;56520;49.066;8.660;2023-03-01T05:05:27;-3.36;85.46
69359;HTU21D;56520;49.066;8.660;2023-03-01T05:07:54;-3.33;85.49
69359;HTU21D;56520;49.066;8.660;2023-03-01T05:10:20;-3.39;85.30
69359;HTU21D;56520;49.066;8.660;2023-03-01T05:12:46;-3.47;85.21
69359;HTU21D;56520;49.066;8.660;2023-03-01T05:15:12;-3.54;85.18
69359;HTU21D;56520;49.066;8.660;2023-03-01T05:17:37;-3.57;85.14
69359;HTU21D;56520;49.066;8.660;2023-03-01T05:20:03;-3.58;85.35
69359;HTU21D;56520;49.066;8.660;2023-03-01T05:22:33;-3.63;85.28
69359;HTU21D;56520;49.066;8.660;2023-03-01T05:24:59;-3.66;85.29
69359;HTU21D;56520;49.066;8.660;2023-03-01T05:27:24;-3.64;85.46
69359;HTU21D;56520;49.066;8.660;2023-03-01T05:29:50;-3.60;85.66
69359;HTU21D;56520;49.066;8.660;2023-03-01T05:32:15;-3.46;86.29
69359;HTU21D;56520;49.066;8.660;2023-03-01T05:34:41;-3.40;86.17
69359;HTU21D;56520;49.066;8.660;2023-03-01T05:37:07;-3.38;85.80
69359;HTU21D;56520;49.066;8.660;2023-03-01T05:39:33;-3.40;85.78
69359;HTU21D;56520;49.066;8.660;2023-03-01T05:42:00;-3.35;86.39
69359;HTU21D;56520;49.066;8.660;2023-03-01T05:44:28;-3.31;86.23
69359;HTU21D;56520;49.066;8.660;2023-03-01T05:46:54;-3.26;86.36
69359;HTU21D;56520;49.066;8.660;2023-03-01T05:49:20;-3.24;86.12
69359;HTU21D;56520;49.066;8.660;2023-03-01T05:51:50;-3.31;85.84
69359;HTU21D;56520;49.066;8.660;2023-03-01T05:54:16;-3.41;85.90
69359;HTU21D;56520;49.066;8.660;2023-03-01T05:56:42;-3.42;85.86
69359;HTU21D;56520;49.066;8.660;2023-03-01T05:59:07;-3.42;86.09
69359;HTU21D;56520;49.066;8.660;2023-03-01T06:01:34;-3.37;86.40
69359;HTU21D;56520;49.066;8.660;2023-03-01T06:04:00;-3.35;86.18
69359;HTU21D;56520;49.066;8.660;2023-03-01T06:06:26;-3.37;86.09
69359;HTU21D;56520;49.066;8.660;2023-03-01T06:08:52;-3.36;86.16
69359;HTU21D;56520;49.066;8.660;2023-03-01T06:11:18;-3.36;85.99
69359;HTU21D;56520;49.066;8.660;2023-03-01T06:13:44;-3.39;85.92
69359;HTU21D;56520;49.066;8.660;2023-03-01T06:16:11;-3.33;85.87
69359;HTU21D;56520;49.066;8.660;2023-03-01T06:18:37;-3.32;85.82
69359;HTU21D;56520;49.066;8.660;2023-03-01T06:21:03;-3.28;85.88
69359;HTU21D;56520;49.066;8.660;2023-03-01T06:23:29;-3.27;85.81
69359;HTU21D;56520;49.066;8.660;2023-03-01T06:25:55;-3.22;85.80
69359;HTU21D;56520;49.066;8.660;2023-03-01T06:28:20;-3.21;85.70
69359;HTU21D;56520;49.066;8.660;2023-03-01T06:30:46;-3.21;85.56
69359;HTU21D;56520;49.066;8.660;2023-03-01T06:33:12;-3.24;85.47
69359;HTU21D;56520;49.066;8.660;2023-03-01T06:35:37;-3.24;85.73
69359;HTU21D;56520;49.066;8.660;2023-03-01T06:38:04;-3.25;85.51
69359;HTU21D;56520;49.066;8.660;2023-03-01T06:40:30;-3.23;85.44
69359;HTU21D;56520;49.066;8.660;2023-03-01T06:42:57;-3.22;85.48
69359;HTU21D;56520;49.066;8.660;2023-03-01T06:45:23;-3.02;85.22
69359;HTU21D;56520;49.066;8.660;2023-03-01T06:47:50;-3.05;84.95
69359;HTU21D;56520;49.066;8.660;2023-03-01T06:50:16;-3.05;84.95
69359;HTU21D;56520;49.066;8.660;2023-03-01T06:52:42;-3.01;84.90
69359;HTU21D;56520;49.066;8.660;2023-03-01T06:55:10;-3.00;84.81
69359;HTU21D;56520;49.066;8.660;2023-03-01T06:57:36;-3.01;84.81
69359;HTU21D;56520;49.066;8.660;2023-03-01T07:00:03;-2.96;84.92
69359;HTU21D;56520;49.066;8.660;2023-03-01T07:02:29;-2.92;84.74
69359;HTU21D;56520;49.066;8.660;2023-03-01T07:04:55;-2.92;84.66
69359;HTU21D;56520;49.066;8.660;2023-03-01T07:07:20;-2.90;84.61
69359;HTU21D;56520;49.066;8.660;2023-03-01T07:09:47;-2.84;84.69
69359;HTU21D;56520;49.066;8.660;2023-03-01T07:12:13;-2.76;84.59
69359;HTU21D;56520;49.066;8.660;2023-03-01T07:14:39;-2.69;84.59
69359;HTU21D;56520;49.066;8.660;2023-03-01T07:17:04;-2.62;84.47
69359;HTU21D;56520;49.066;8.660;2023-03-01T07:19:30;-2.51;84.49
69359;HTU21D;56520;49.066;8.660;2023-03-01T07:21:55;-2.36;84.20
69359;HTU21D;56520;49.066;8.660;2023-03-01T07:24:21;-2.30;84.00
69359;HTU21D;56520;49.066;8.660;2023-03-01T07:26:51;-2.22;83.92
69359;HTU21D;56520;49.066;8.660;2023-03-01T07:29:17;-2.14;83.72
69359;HTU21D;56520;49.066;8.660;2023-03-01T07:31:43;-2.06;83.56
69359;HTU21D;56520;49.066;8.660;2023-03-01T07:34:08;-1.97;83.42
69359;HTU21D;56520;49.066;8.660;2023-03-01T07:36:34;-1.87;82.95
69359;HTU21D;56520;49.066;8.660;2023-03-01T07:38:59;-1.79;82.64
69359;HTU21D;56520;49.066;8.660;2023-03-01T07:41:27;-1.68;81.94
69359;HTU21D;56520;49.066;8.660;2023-03-01T07:43:53;-1.45;80.80
69359;HTU21D;56520;49.066;8.660;2023-03-01T07:46:18;-1.44;80.57
69359;HTU21D;56520;49.066;8.660;2023-03-01T07:48:44;-1.40;80.75
69359;HTU21D;56520;49.066;8.660;2023-03-01T07:51:09;-1.31;80.43
69359;HTU21D;56520;49.066;8.660;2023-03-01T07:53:35;-1.25;80.36
69359;HTU21D;56520;49.066;8.660;2023-03-01T07:56:11;-1.15;80.29
69359;HTU21D;56520;49.066;8.660;2023-03-01T07:58:39;-1.08;80.10
69359;HTU21D;56520;49.066;8.660;2023-03-01T08:01:06;-0.98;80.17
69359;HTU21D;56520;49.066;8.660;2023-03-01T08:03:33;-0.88;78.94
69359;HTU21D;56520;49.066;8.660;2023-03-01T08:06:00;-0.79;78.64
69359;HTU21D;56520;49.066;8.660;2023-03-01T08:08:25;-0.71;78.47
69359;HTU21D;56520;49.066;8.660;2023-03-01T08:10:51;-0.59;77.31
69359;HTU21D;56520;49.066;8.660;2023-03-01T08:13:17;-0.51;77.60
69359;HTU21D;56520;49.066;8.660;2023-03-01T08:15:48;-0.42;76.47
69359;HTU21D;56520;49.066;8.660;2023-03-01T08:18:14;-0.35;76.92
69359;HTU21D;56520;49.066;8.660;2023-03-01T08:20:39;-0.28;76.70
69359;HTU21D;56520;49.066;8.660;2023-03-01T08:23:05;-0.14;76.26
69359;HTU21D;56520;49.066;8.660;2023-03-01T08:25:30;-0.06;76.57
69359;HTU21D;56520;49.066;8.660;2023-03-01T08:27:56;0.05;75.09
69359;HTU21D;56520;49.066;8.660;2023-03-01T08:30:21;0.12;75.40
69359;HTU21D;56520;49.066;8.660;2023-03-01T08:32:49;0.24;73.93
69359;HTU21D;56520;49.066;8.660;2023-03-01T08:35:15;0.34;74.38
69359;HTU21D;56520;49.066;8.660;2023-03-01T08:37:40;0.47;73.69
69359;HTU21D;56520;49.066;8.660;2023-03-01T08:40:06;0.60;73.62
69359;HTU21D;56520;49.066;8.660;2023-03-01T08:42:33;0.75;73.38
69359;HTU21D;56520;49.066;8.660;2023-03-01T08:44:58;0.86;73.01
69359;HTU21D;56520;49.066;8.660;2023-03-01T08:47:24;0.95;71.69
69359;HTU21D;56520;49.066;8.660;2023-03-01T08:49:50;1.06;71.42
69359;HTU21D;56520;49.066;8.660;2023-03-01T08:52:15;1.21;70.10
69359;HTU21D;56520;49.066;8.660;2023-03-01T08:54:41;1.26;70.90
69359;HTU21D;56520;49.066;8.660;2023-03-01T08:57:06;1.38;70.20
69359;HTU21D;56520;49.066;8.660;2023-03-01T08:59:32;1.50;69.50
69359;HTU21D;56520;49.066;8.660;2023-03-01T09:02:03;1.61;69.39
69359;HTU21D;56520;49.066;8.660;2023-03-01T09:04:29;1.76;68.39
69359;HTU21D;56520;49.066;8.660;2023-03-01T09:06:54;2.14;68.47
69359;HTU21D;56520;49.066;8.660;2023-03-01T09:09:20;2.56;66.23
69359;HTU21D;56520;49.066;8.660;2023-03-01T09:11:46;2.93;65.38
69359;HTU21D;56520;49.066;8.660;2023-03-01T09:14:12;3.39;64.11
69359;HTU21D;56520;49.066;8.660;2023-03-01T09:16:38;3.56;65.04
69359;HTU21D;56520;49.066;8.660;2023-03-01T09:19:05;4.09;62.46
69359;HTU21D;56520;49.066;8.660;2023-03-01T09:21:31;4.14;60.66
69359;HTU21D;56520;49.066;8.660;2023-03-01T09:23:57;4.35;62.44
69359;HTU21D;56520;49.066;8.660;2023-03-01T09:26:24;4.59;60.09
69359;HTU21D;56520;49.066;8.660;2023-03-01T09:28:51;4.87;60.01
69359;HTU21D;56520;49.066;8.660;2023-03-01T09:31:18;4.84;59.12
69359;HTU21D;56520;49.066;8.660;2023-03-01T09:33:46;4.90;59.16
69359;HTU21D;56520;49.066;8.660;2023-03-01T09:36:17;4.94;57.60
69359;HTU21D;56520;49.066;8.660;2023-03-01T09:38:43;5.00;58.35
69359;HTU21D;56520;49.066;8.660;2023-03-01T09:43:48;5.11;57.42
69359;HTU21D;56520;49.066;8.660;2023-03-01T09:46:20;5.25;58.54
69359;HTU21D;56520;49.066;8.660;2023-03-01T09:49:12;5.51;58.91
69359;HTU21D;56520;49.066;8.660;2023-03-01T09:51:36;5.87;58.83
69359;HTU21D;56520;49.066;8.660;2023-03-01T09:54:03;6.05;57.42
69359;HTU21D;56520;49.066;8.660;2023-03-01T09:56:34;6.24;56.78
69359;HTU21D;56520;49.066;8.660;2023-03-01T10:04:48;5.84;56.42
69359;HTU21D;56520;49.066;8.660;2023-03-01T10:10:38;5.72;56.91
69359;HTU21D;56520;49.066;8.660;2023-03-01T10:16:03;6.26;54.65
69359;HTU21D;56520;49.066;8.660;2023-03-01T10:18:32;5.98;55.65
69359;HTU21D;56520;49.066;8.660;2023-03-01T10:21:13;6.14;55.46
69359;HTU21D;56520;49.066;8.660;2023-03-01T10:23:40;6.24;54.70
69359;HTU21D;56520;49.066;8.660;2023-03-01T10:29:06;6.13;54.73
69359;HTU21D;56520;49.066;8.660;2023-03-01T10:31:49;6.24;54.65
69359;HTU21D;56520;49.066;8.660;2023-03-01T10:34:35;6.17;56.28
69359;HTU21D;56520;49.066;8.660;2023-03-01T10:37:11;6.34;56.00
69359;HTU21D;56520;49.066;8.660;2023-03-01T10:39:58;6.45;54.64
69359;HTU21D;56520;49.066;8.660;2023-03-01T10:42:28;6.43;55.61
69359;HTU21D;56520;49.066;8.660;2023-03-01T10:44:54;6.68;54.86
69359;HTU21D;56520;49.066;8.660;2023-03-01T10:47:27;6.80;53.14
69359;HTU21D;56520;49.066;8.660;2023-03-01T10:49:58;6.75;53.55
69359;HTU21D;56520;49.066;8.660;2023-03-01T10:52:34;6.65;53.49
69359;HTU21D;56520;49.066;8.660;2023-03-01T10:57:49;6.69;55.43
69359;HTU21D;56520;49.066;8.660;2023-03-01T11:02:48;7.16;53.17
69359;HTU21D;56520;49.066;8.660;2023-03-01T11:07:54;7.37;52.23
69359;HTU21D;56520;49.066;8.660;2023-03-01T11:10:35;7.03;54.28
69359;HTU21D;56520;49.066;8.660;2023-03-01T11:13:19;7.18;54.37
69359;HTU21D;56520;49.066;8.660;2023-03-01T11:16:03;7.39;52.94
69359;HTU21D;56520;49.066;8.660;2023-03-01T11:18:30;7.35;53.05
69359;HTU21D;56520;49.066;8.660;2023-03-01T11:20:57;7.37;52.20
69359;HTU21D;56520;49.066;8.660;2023-03-01T11:23:24;7.22;51.89
69359;HTU21D;56520;49.066;8.660;2023-03-01T11:26:00;7.08;52.55
69359;HTU21D;56520;49.066;8.660;2023-03-01T11:28:28;6.89;53.46
69359;HTU21D;56520;49.066;8.660;2023-03-01T11:33:37;6.85;53.57
69359;HTU21D;56520;49.066;8.660;2023-03-01T11:38:54;6.91;53.44
69359;HTU21D;56520;49.066;8.660;2023-03-01T11:41:25;7.10;53.73
69359;HTU21D;56520;49.066;8.660;2023-03-01T11:43:55;7.28;53.63
69359;HTU21D;56520;49.066;8.660;2023-03-01T11:51:53;7.35;51.74
69359;HTU21D;56520;49.066;8.660;2023-03-01T11:57:00;7.60;51.69
69359;HTU21D;56520;49.066;8.660;2023-03-01T12:07:44;7.45;52.74
69359;HTU21D;56520;49.066;8.660;2023-03-01T12:12:45;7.77;51.36
69359;HTU21D;56520;49.066;8.660;2023-03-01T12:15:33;7.87;50.69
69359;HTU21D;56520;49.066;8.660;2023-03-01T12:51:17;7.74;49.79
69359;HTU21D;56520;49.066;8.660;2023-03-01T12:53:47;7.87;52.07
69359;HTU21D;56520;49.066;8.660;2023-03-01T12:56:26;8.14;49.74
69359;HTU21D;56520;49.066;8.660;2023-03-01T12:59:35;8.15;49.47
69359;HTU21D;56520;49.066;8.660;2023-03-01T13:02:23;8.34;49.36
69359;HTU21D;56520;49.066;8.660;2023-03-01T13:10:43;8.78;48.44
69359;HTU21D;56520;49.066;8.660;2023-03-01T13:13:19;9.02;48.13
69359;HTU21D;56520;49.066;8.660;2023-03-01T13:15:44;9.30;47.58
69359;HTU21D;56520;49.066;8.660;2023-03-01T13:28:46;9.54;44.54
69359;HTU21D;56520;49.066;8.660;2023-03-01T13:33:45;9.02;47.18
69359;HTU21D;56520;49.066;8.660;2023-03-01T13:36:46;9.15;47.62
69359;HTU21D;56520;49.066;8.660;2023-03-01T13:38:59;9.23;47.71
69359;HTU21D;56520;49.066;8.660;2023-03-01T13:49:43;9.15;48.30
69359;HTU21D;56520;49.066;8.660;2023-03-01T13:52:39;9.20;47.51
69359;HTU21D;56520;49.066;8.660;2023-03-01T13:57:40;9.11;48.86
69359;HTU21D;56520;49.066;8.660;2023-03-01T14:00:24;9.23;47.70
69359;HTU21D;56520;49.066;8.660;2023-03-01T14:03:04;9.12;48.44
69359;HTU21D;56520;49.066;8.660;2023-03-01T14:05:31;9.16;47.91
69359;HTU21D;56520;49.066;8.660;2023-03-01T14:07:56;9.10;46.79
69359;HTU21D;56520;49.066;8.660;2023-03-01T14:10:27;9.04;48.14
69359;HTU21D;56520;49.066;8.660;2023-03-01T14:15:37;9.08;48.53
69359;HTU21D;56520;49.066;8.660;2023-03-01T14:18:21;9.16;48.77
69359;HTU21D;56520;49.066;8.660;2023-03-01T14:20:48;9.42;46.77
69359;HTU21D;56520;49.066;8.660;2023-03-01T14:23:21;9.18;47.17
69359;HTU21D;56520;49.066;8.660;2023-03-01T14:25:57;8.97;47.85
69359;HTU21D;56520;49.066;8.660;2023-03-01T14:30:57;8.85;47.25
69359;HTU21D;56520;49.066;8.660;2023-03-01T14:33:33;8.70;48.82
69359;HTU21D;56520;49.066;8.660;2023-03-01T14:36:01;8.75;48.05
69359;HTU21D;56520;49.066;8.660;2023-03-01T14:40:59;8.80;48.11
69359;HTU21D;56520;49.066;8.660;2023-03-01T14:43:27;8.95;48.18
69359;HTU21D;56520;49.066;8.660;2023-03-01T14:45:54;8.86;48.36
69359;HTU21D;56520;49.066;8.660;2023-03-01T14:48:20;8.75;48.41
69359;HTU21D;56520;49.066;8.660;2023-03-01T14:50:49;8.78;48.97
69359;HTU21D;56520;49.066;8.660;2023-03-01T14:53:24;8.87;47.89
69359;HTU21D;56520;49.066;8.660;2023-03-01T14:56:00;8.73;48.29
69359;HTU21D;56520;49.066;8.660;2023-03-01T14:58:32;8.63;48.02
69359;HTU21D;56520;49.066;8.660;2023-03-01T15:01:00;8.55;48.63
69359;HTU21D;56520;49.066;8.660;2023-03-01T15:03:36;8.43;48.59
69359;HTU21D;56520;49.066;8.660;2023-03-01T15:06:06;8.37;48.84
69359;HTU21D;56520;49.066;8.660;2023-03-01T15:08:32;8.31;48.85
69359;HTU21D;56520;49.066;8.660;2023-03-01T15:13:40;8.20;49.66
69359;HTU21D;56520;49.066;8.660;2023-03-01T15:18:37;8.03;49.78
69359;HTU21D;56520;49.066;8.660;2023-03-01T15:21:16;8.06;50.01
69359;HTU21D;56520;49.066;8.660;2023-03-01T15:23:48;7.94;49.67
69359;HTU21D;56520;49.066;8.660;2023-03-01T15:26:40;7.81;50.50
69359;HTU21D;56520;49.066;8.660;2023-03-01T15:29:16;7.67;50.60
69359;HTU21D;56520;49.066;8.660;2023-03-01T15:31:53;7.67;51.49
69359;HTU21D;56520;49.066;8.660;2023-03-01T15:34:35;7.64;50.72
69359;HTU21D;56520;49.066;8.660;2023-03-01T15:40:25;7.49;52.01
69359;HTU21D;56520;49.066;8.660;2023-03-01T15:43:06;7.44;51.85
69359;HTU21D;56520;49.066;8.660;2023-03-01T15:45:33;7.39;51.99
69359;HTU21D;56520;49.066;8.660;2023-03-01T15:48:06;7.35;52.85
69359;HTU21D;56520;49.066;8.660;2023-03-01T15:50:40;7.25;52.06
69359;HTU21D;56520;49.066;8.660;2023-03-01T15:53:09;7.15;52.51
69359;HTU21D;56520;49.066;8.660;2023-03-01T15:55:36;7.09;52.58
69359;HTU21D;56520;49.066;8.660;2023-03-01T15:58:17;7.07;52.36
69359;HTU21D;56520;49.066;8.660;2023-03-01T16:00:44;6.99;52.94
69359;HTU21D;56520;49.066;8.660;2023-03-01T16:03:11;6.93;53.03
69359;HTU21D;56520;49.066;8.660;2023-03-01T16:05:37;6.84;53.66
69359;HTU21D;56520;49.066;8.660;2023-03-01T16:08:04;6.81;53.85
69359;HTU21D;56520;49.066;8.660;2023-03-01T16:10:32;6.72;53.56
69359;HTU21D;56520;49.066;8.660;2023-03-01T16:12:58;6.63;53.94
69359;HTU21D;56520;49.066;8.660;2023-03-01T16:15:30;6.57;54.00
69359;HTU21D;56520;49.066;8.660;2023-03-01T16:17:57;6.49;54.10
69359;HTU21D;56520;49.066;8.660;2023-03-01T16:20:26;6.44;54.71
69359;HTU21D;56520;49.066;8.660;2023-03-01T16:22:52;6.34;55.01
69359;HTU21D;56520;49.066;8.660;2023-03-01T16:25:18;6.27;55.00
69359;HTU21D;56520;49.066;8.660;2023-03-01T16:27:45;6.26;55.08
69359;HTU21D;56520;49.066;8.660;2023-03-01T16:30:13;6.17;55.25
69359;HTU21D;56520;49.066;8.660;2023-03-01T16:32:40;6.07;55.67
69359;HTU21D;56520;49.066;8.660;2023-03-01T16:35:07;6.08;55.68
69359;HTU21D;56520;49.066;8.660;2023-03-01T16:37:34;6.04;55.68
69359;HTU21D;56520;49.066;8.660;2023-03-01T16:40:00;5.94;55.91
69359;HTU21D;56520;49.066;8.660;2023-03-01T16:42:26;5.87;55.82
69359;HTU21D;56520;49.066;8.660;2023-03-01T16:44:55;5.84;56.02
69359;HTU21D;56520;49.066;8.660;2023-03-01T16:47:21;5.74;56.31
69359;HTU21D;56520;49.066;8.660;2023-03-01T16:49:47;5.69;56.74
69359;HTU21D;56520;49.066;8.660;2023-03-01T16:52:12;5.62;56.87
69359;HTU21D;56520;49.066;8.660;2023-03-01T16:54:38;5.55;56.95
69359;HTU21D;56520;49.066;8.660;2023-03-01T16:57:03;5.43;57.34
69359;HTU21D;56520;49.066;8.660;2023-03-01T16:59:30;5.36;57.52
69359;HTU21D;56520;49.066;8.660;2023-03-01T17:01:55;5.30;57.43
69359;HTU21D;56520;49.066;8.660;2023-03-01T17:04:21;5.20;57.83
69359;HTU21D;56520;49.066;8.660;2023-03-01T17:06:46;5.13;57.93
69359;HTU21D;56520;49.066;8.660;2023-03-01T17:09:14;5.08;57.88
69359;HTU21D;56520;49.066;8.660;2023-03-01T17:11:40;5.00;58.19
69359;HTU21D;56520;49.066;8.660;2023-03-01T17:14:06;4.92;58.45
69359;HTU21D;56520;49.066;8.660;2023-03-01T17:16:32;4.82;58.52
69359;HTU21D;56520;49.066;8.660;2023-03-01T17:18:57;4.75;58.97
69359;HTU21D;56520;49.066;8.660;2023-03-01T17:21:23;4.67;59.11
69359;HTU21D;56520;49.066;8.660;2023-03-01T17:23:48;4.62;59.12
69359;HTU21D;56520;49.066;8.660;2023-03-01T17:26:15;4.56;58.97
69359;HTU21D;56520;49.066;8.660;2023-03-01T17:28:41;4.45;59.28
69359;HTU21D;56520;49.066;8.660;2023-03-01T17:31:08;4.35;59.44
69359;HTU21D;56520;49.066;8.660;2023-03-01T17:33:34;4.24;59.47
69359;HTU21D;56520;49.066;8.660;2023-03-01T17:36:00;4.10;59.51
69359;HTU21D;56520;49.066;8.660;2023-03-01T17:38:35;3.95;59.72
69359;HTU21D;56520;49.066;8.660;2023-03-01T17:41:07;3.79;59.97
69359;HTU21D;56520;49.066;8.660;2023-03-01T17:43:32;3.68;60.18
69359;HTU21D;56520;49.066;8.660;2023-03-01T17:46:01;3.56;60.41
69359;HTU21D;56520;49.066;8.660;2023-03-01T17:48:26;3.43;60.63
69359;HTU21D;56520;49.066;8.660;2023-03-01T17:50:52;3.33;60.80